createdAt,value
2018-11-02T00:01:43.183Z,18.62
2018-11-02T00:04:11.751Z,19.52
2018-11-02T00:06:40.429Z,16.55
2018-11-02T00:09:08.966Z,20.70
2018-11-02T00:11:37.538Z,16.45
2018-11-02T00:14:06.120Z,18.52
2018-11-02T00:16:34.639Z,19.40
2018-11-02T00:19:03.369Z,18.07
2018-11-02T00:21:31.888Z,21.65
2018-11-02T00:24:00.538Z,16.55
2018-11-02T00:26:29.045Z,18.95
2018-11-02T00:28:57.714Z,15.83
2018-11-02T00:31:26.261Z,14.13
2018-11-02T00:33:54.826Z,17.12
2018-11-02T00:36:23.329Z,23.15
2018-11-02T00:38:51.934Z,21.85
2018-11-02T00:41:20.567Z,14.13
2018-11-02T00:43:49.716Z,17.12
2018-11-02T00:46:18.196Z,24.40
2018-11-02T00:48:46.837Z,18.82
2018-11-02T00:51:15.349Z,20.25
2018-11-02T00:53:43.971Z,13.50
2018-11-02T00:56:12.478Z,14.85
2018-11-02T00:58:41.010Z,16.80
2018-11-02T01:01:09.541Z,19.02
2018-11-02T01:03:38.318Z,15.95
2018-11-02T01:06:06.933Z,22.67
2018-11-02T01:08:35.522Z,18.05
2018-11-02T01:11:04.169Z,15.75
2018-11-02T01:13:32.736Z,15.95
2018-11-02T01:16:01.270Z,15.45
2018-11-02T01:18:29.813Z,14.75
2018-11-02T01:20:58.399Z,19.17
2018-11-02T01:23:27.102Z,21.23
2018-11-02T01:25:55.954Z,14.95
2018-11-02T01:28:24.505Z,14.10
2018-11-02T01:30:53.174Z,18.02
2018-11-02T01:33:27.103Z,19.42
2018-11-02T01:35:55.648Z,16.42
2018-11-02T01:38:24.182Z,14.43
2018-11-02T01:40:52.733Z,15.90
2018-11-02T01:43:21.343Z,15.30
2018-11-02T01:45:50.378Z,15.38
2018-11-02T01:48:18.906Z,14.68
2018-11-02T01:50:47.481Z,16.10
2018-11-02T01:53:16.312Z,15.30
2018-11-02T01:55:44.862Z,15.20
2018-11-02T01:58:13.440Z,15.43
2018-11-02T02:00:41.985Z,12.63
2018-11-02T02:03:10.549Z,27.50
2018-11-02T02:05:39.310Z,12.53
2018-11-02T02:08:07.879Z,15.60
2018-11-02T02:10:36.506Z,15.85
2018-11-02T02:13:05.879Z,17.00
2018-11-02T02:15:34.346Z,15.65
2018-11-02T02:18:03.185Z,16.12
2018-11-02T02:20:31.720Z,15.43
2018-11-02T02:23:00.266Z,19.50
2018-11-02T02:25:28.758Z,16.30
2018-11-02T02:27:57.293Z,15.75
2018-11-02T02:30:25.878Z,17.15
2018-11-02T02:32:54.430Z,15.40
2018-11-02T02:35:22.966Z,22.07
2018-11-02T02:37:51.664Z,18.05
2018-11-02T02:40:20.189Z,14.80
2018-11-02T02:42:48.724Z,16.23
2018-11-02T02:45:17.310Z,18.92
2018-11-02T02:47:45.947Z,14.80
2018-11-02T02:50:15.048Z,11.60
2018-11-02T02:52:44.436Z,12.03
2018-11-02T02:55:13.034Z,13.43
2018-11-02T02:57:41.610Z,15.30
2018-11-02T03:00:12.275Z,14.83
2018-11-02T03:02:41.127Z,13.10
2018-11-02T03:05:10.146Z,12.90
2018-11-02T03:07:39.097Z,13.40
2018-11-02T03:10:08.025Z,12.53
2018-11-02T03:12:36.790Z,12.90
2018-11-02T03:15:05.941Z,12.33
2018-11-02T03:17:34.953Z,14.85
2018-11-02T03:20:04.810Z,15.00
2018-11-02T03:22:33.360Z,14.43
2018-11-02T03:25:01.889Z,16.32
2018-11-02T03:27:30.631Z,14.35
2018-11-02T03:29:59.143Z,13.20
2018-11-02T03:32:27.697Z,17.23
2018-11-02T03:34:56.258Z,12.73
2018-11-02T03:37:24.901Z,16.48
2018-11-02T03:39:53.446Z,15.98
2018-11-02T03:42:21.984Z,20.43
2018-11-02T03:44:50.583Z,12.78
2018-11-02T03:47:19.117Z,21.80
2018-11-02T03:49:47.664Z,15.25
2018-11-02T03:52:16.245Z,14.13
2018-11-02T03:54:44.858Z,17.42
2018-11-02T03:57:13.425Z,15.78
2018-11-02T03:59:41.990Z,17.82
2018-11-02T04:02:10.566Z,29.48
2018-11-02T04:04:39.094Z,15.50
2018-11-02T04:07:07.772Z,15.38
2018-11-02T04:09:36.580Z,15.65
2018-11-02T04:12:05.160Z,19.00
2018-11-02T04:14:33.800Z,19.27
2018-11-02T04:17:02.353Z,13.95
2018-11-02T04:19:30.877Z,18.65
2018-11-02T04:21:59.437Z,15.75
2018-11-02T04:24:28.021Z,17.37
2018-11-02T04:26:56.593Z,18.50
2018-11-02T04:29:25.147Z,15.55
2018-11-02T04:31:53.755Z,17.55
2018-11-02T04:34:22.324Z,16.00
2018-11-02T04:36:50.843Z,14.20
2018-11-02T04:39:19.381Z,16.62
2018-11-02T04:41:47.908Z,15.35
2018-11-02T04:44:16.458Z,13.13
2018-11-02T04:46:44.990Z,13.43
2018-11-02T04:49:13.733Z,16.62
2018-11-02T04:51:42.246Z,14.65
2018-11-02T04:54:10.827Z,14.63
2018-11-02T04:56:39.467Z,15.72
2018-11-02T04:59:07.995Z,15.18
2018-11-02T05:01:36.549Z,17.48
2018-11-02T05:04:05.760Z,16.60
2018-11-02T05:06:34.424Z,15.38
2018-11-02T05:09:02.999Z,16.32
2018-11-02T05:11:31.642Z,13.10
2018-11-02T05:14:00.136Z,15.85
2018-11-02T05:16:28.694Z,12.58
2018-11-02T05:18:57.270Z,15.45
2018-11-02T05:21:25.820Z,13.22
2018-11-02T05:23:54.360Z,14.53
2018-11-02T06:08:58.673Z,27.27
2018-11-02T06:11:27.199Z,21.90
2018-11-02T06:13:55.870Z,19.42
2018-11-02T06:16:24.409Z,21.42
2018-11-02T06:18:52.972Z,22.70
2018-11-02T06:21:21.501Z,24.23
2018-11-02T06:23:50.230Z,24.98
2018-11-02T06:26:18.782Z,20.02
2018-11-02T06:28:47.350Z,22.62
2018-11-02T06:31:15.874Z,21.70
2018-11-02T06:33:44.514Z,16.60
2018-11-02T06:36:13.246Z,18.65
2018-11-02T06:38:41.845Z,16.32
2018-11-02T06:41:10.357Z,20.60
2018-11-02T06:43:38.898Z,22.87
2018-11-02T06:46:07.474Z,21.65
2018-11-02T06:48:35.983Z,21.27
2018-11-02T06:51:04.696Z,16.30
2018-11-02T06:53:33.177Z,18.65
2018-11-02T06:56:01.802Z,18.27
2018-11-02T06:58:30.357Z,19.40
2018-11-02T07:00:58.981Z,22.90
2018-11-02T07:03:27.642Z,22.22
2018-11-02T07:05:56.463Z,19.05
2018-11-02T07:08:25.354Z,21.82
2018-11-02T07:10:53.749Z,18.87
2018-11-02T07:13:22.297Z,22.85
2018-11-02T07:15:50.818Z,16.77
2018-11-02T07:18:19.369Z,20.08
2018-11-02T07:20:48.066Z,19.92
2018-11-02T07:23:16.720Z,28.65
2018-11-02T07:25:45.237Z,20.17
2018-11-02T07:28:13.746Z,20.08
2018-11-02T07:30:42.342Z,19.75
2018-11-02T07:33:10.970Z,20.65
2018-11-02T07:35:39.516Z,23.07
2018-11-02T07:38:08.155Z,26.30
2018-11-02T07:40:37.014Z,25.08
2018-11-02T07:43:05.622Z,24.25
2018-11-02T07:45:34.100Z,26.00
2018-11-02T07:48:02.609Z,25.27
2018-11-02T07:50:31.154Z,27.15
2018-11-02T07:52:59.728Z,30.70
2018-11-02T07:55:28.149Z,34.30
2018-11-02T07:57:56.782Z,29.40
2018-11-02T08:00:25.390Z,24.72
2018-11-02T08:02:53.881Z,25.27
2018-11-02T08:05:22.522Z,28.70
2018-11-02T08:07:51.194Z,27.25
2018-11-02T08:10:19.752Z,28.35
2018-11-02T08:12:48.252Z,36.58
2018-11-02T08:15:17.803Z,29.18
2018-11-02T08:17:46.517Z,29.42
2018-11-02T08:20:15.024Z,24.45
2018-11-02T08:22:43.923Z,27.85
2018-11-02T08:25:12.927Z,29.37
2018-11-02T08:27:41.995Z,31.37
2018-11-02T08:30:11.547Z,25.77
2018-11-02T08:32:40.051Z,23.62
2018-11-02T08:35:10.445Z,21.37
2018-11-02T08:37:39.005Z,22.00
2018-11-02T08:40:08.946Z,20.08
2018-11-02T08:42:37.455Z,15.20
2018-11-02T08:45:06.562Z,16.42
2018-11-02T08:47:35.186Z,15.32
2018-11-02T08:50:03.796Z,18.73
2018-11-02T08:52:32.341Z,18.25
2018-11-02T08:55:00.926Z,18.00
2018-11-02T08:57:29.414Z,19.40
2018-11-02T08:59:58.056Z,19.57
2018-11-02T09:02:26.546Z,19.48
2018-11-02T09:04:55.237Z,18.25
2018-11-02T09:07:23.726Z,15.95
2018-11-02T09:09:52.502Z,15.65
2018-11-02T09:12:21.068Z,20.82
2018-11-02T09:14:49.717Z,18.52
2018-11-02T09:17:18.260Z,18.90
2018-11-02T09:19:46.921Z,16.40
2018-11-02T09:22:15.500Z,17.60
2018-11-02T09:24:44.088Z,19.00
2018-11-02T09:27:12.717Z,20.47
2018-11-02T09:29:41.272Z,16.97
2018-11-02T09:32:09.821Z,22.73
2018-11-02T09:34:38.470Z,21.00
2018-11-02T09:37:07.093Z,18.03
2018-11-02T09:39:35.644Z,17.90
2018-11-02T09:42:04.324Z,20.00
2018-11-02T09:44:32.889Z,17.87
2018-11-02T09:47:01.499Z,22.83
2018-11-02T09:49:30.130Z,18.33
2018-11-02T09:51:58.747Z,18.23
2018-11-02T09:54:27.375Z,23.13
2018-11-02T09:56:55.974Z,25.10
2018-11-02T09:59:24.526Z,18.30
2018-11-02T10:01:53.102Z,17.57
2018-11-02T10:04:21.634Z,18.53
2018-11-02T10:06:50.194Z,15.83
2018-11-02T10:09:18.903Z,17.13
2018-11-02T10:11:47.449Z,14.53
2018-11-02T10:14:16.042Z,17.63
2018-11-02T10:16:44.624Z,18.37
2018-11-02T10:19:13.241Z,17.30
2018-11-02T10:21:41.853Z,13.23
2018-11-02T10:24:10.430Z,14.17
2018-11-02T10:26:39.045Z,15.40
2018-11-02T10:29:07.941Z,10.57
2018-11-02T10:31:36.539Z,12.00
2018-11-02T10:34:05.241Z,2.80
2018-11-02T10:36:34.573Z,2.30
2018-11-02T10:39:03.558Z,2.00
2018-11-02T10:41:35.122Z,11.20
2018-11-02T10:44:04.085Z,9.70
2018-11-02T10:46:32.748Z,1.67
2018-11-02T10:49:01.558Z,1.20
2018-11-02T10:51:30.342Z,1.30
2018-11-02T10:53:58.939Z,1.10
2018-11-02T10:56:27.544Z,1.10
2018-11-02T10:58:56.153Z,2.07
2018-11-02T11:01:30.117Z,0.93
2018-11-02T11:03:58.923Z,1.20
2018-11-02T11:06:27.495Z,2.10
2018-11-02T11:08:56.077Z,1.77
2018-11-02T11:11:24.814Z,1.10
2018-11-02T11:13:53.540Z,1.63
2018-11-02T11:16:22.162Z,1.10
2018-11-02T11:18:50.858Z,1.30
2018-11-02T11:21:19.495Z,2.30
2018-11-02T11:23:48.110Z,2.70
2018-11-02T11:26:16.848Z,1.67
2018-11-02T11:28:45.406Z,1.37
2018-11-02T11:31:14.198Z,1.40
2018-11-02T11:33:42.873Z,2.10
2018-11-02T11:36:11.710Z,3.10
2018-11-02T11:38:40.259Z,1.57
2018-11-02T11:41:09.010Z,1.87
2018-11-02T11:43:37.586Z,2.27
2018-11-02T11:46:06.170Z,1.53
2018-11-02T11:48:34.932Z,2.20
2018-11-02T11:51:03.609Z,1.47
2018-11-02T11:53:32.342Z,2.37
2018-11-02T11:56:01.123Z,1.80
2018-11-02T11:58:29.869Z,1.33
2018-11-02T12:00:58.469Z,2.50
2018-11-02T12:03:27.175Z,1.63
2018-11-02T12:05:55.865Z,1.83
2018-11-02T12:08:24.466Z,1.30
2018-11-02T12:10:53.069Z,2.70
2018-11-02T12:13:21.634Z,3.77
2018-11-02T12:15:50.466Z,2.30
2018-11-02T12:18:18.972Z,3.10
2018-11-02T12:20:47.618Z,2.03
2018-11-02T12:23:16.183Z,1.40
2018-11-02T12:25:45.026Z,1.30
2018-11-02T12:28:13.660Z,2.27
2018-11-02T12:30:42.251Z,2.30
2018-11-02T12:33:10.953Z,4.30
2018-11-02T12:35:39.517Z,1.30
2018-11-02T12:38:08.090Z,3.30
2018-11-02T12:40:36.707Z,3.10
2018-11-02T12:43:05.956Z,4.33
2018-11-02T12:45:34.507Z,4.70
2018-11-02T12:48:03.261Z,7.13
2018-11-02T12:50:32.064Z,7.10
2018-11-02T12:53:00.833Z,2.03
2018-11-02T12:55:29.550Z,5.93
2018-11-02T12:57:58.419Z,3.20
2018-11-02T13:00:27.977Z,3.30
2018-11-02T13:02:56.850Z,2.70
2018-11-02T13:05:25.495Z,5.83
2018-11-02T13:07:54.125Z,4.20
2018-11-02T13:10:23.488Z,5.43
2018-11-02T13:12:52.314Z,2.13
2018-11-02T13:15:22.326Z,3.30
2018-11-02T13:17:51.429Z,3.00
2018-11-02T13:20:20.266Z,3.00
2018-11-02T13:22:49.899Z,3.10
2018-11-02T13:25:20.624Z,5.13
2018-11-02T13:27:50.018Z,6.60
2018-11-02T13:30:19.037Z,1.73
2018-11-02T13:32:47.517Z,2.50
2018-11-02T13:35:17.372Z,3.80
2018-11-02T13:37:46.545Z,1.77
2018-11-02T13:40:16.513Z,2.77
2018-11-02T13:42:45.544Z,5.60
2018-11-02T13:45:15.461Z,4.60
2018-11-02T13:47:44.637Z,2.33
2018-11-02T13:50:13.606Z,2.00
2018-11-02T13:52:42.916Z,4.47
2018-11-02T13:55:12.288Z,3.50
2018-11-02T13:57:41.160Z,4.13
2018-11-02T14:00:12.035Z,7.47
2018-11-02T14:02:40.617Z,3.57
2018-11-02T14:05:10.990Z,5.73
2018-11-02T14:07:39.658Z,4.10
2018-11-02T14:10:09.201Z,4.20
2018-11-02T14:12:37.901Z,3.47
2018-11-02T14:15:08.522Z,8.37
2018-11-02T14:17:37.244Z,5.93
2018-11-02T14:20:07.394Z,4.53
2018-11-02T14:22:36.418Z,3.70
2018-11-02T14:25:06.341Z,3.27
2018-11-02T14:27:34.997Z,3.83
2018-11-02T14:30:03.826Z,5.30
2018-11-02T14:32:32.393Z,3.17
2018-11-02T14:35:00.987Z,2.87
2018-11-02T14:37:29.536Z,4.00
2018-11-02T14:39:58.209Z,3.53
2018-11-02T14:42:26.870Z,7.53
2018-11-02T14:44:55.459Z,2.60
2018-11-02T14:47:24.390Z,6.40
2018-11-02T14:49:52.983Z,3.97
2018-11-02T14:52:21.757Z,3.97
2018-11-02T14:54:50.375Z,4.10
2018-11-02T14:57:19.211Z,6.37
2018-11-02T14:59:47.952Z,5.60
2018-11-02T15:02:16.561Z,6.07
2018-11-02T15:04:45.185Z,4.77
2018-11-02T15:07:13.893Z,6.57
2018-11-02T15:09:42.449Z,8.40
2018-11-02T15:12:11.039Z,6.87
2018-11-02T15:14:39.642Z,8.77
2018-11-02T15:17:08.319Z,11.77
2018-11-02T15:19:36.974Z,6.10
2018-11-02T15:22:05.952Z,4.10
2018-11-02T15:24:34.512Z,5.10
2018-11-02T15:27:03.202Z,4.53
2018-11-02T15:29:31.748Z,8.37
2018-11-02T15:32:00.423Z,4.17
2018-11-02T15:34:29.164Z,8.27
2018-11-02T15:36:57.710Z,4.40
2018-11-02T15:39:26.354Z,3.63
2018-11-02T15:41:54.959Z,3.40
2018-11-02T15:44:23.637Z,10.37
2018-11-02T15:46:52.574Z,6.43
2018-11-02T15:49:21.237Z,4.30
2018-11-02T15:51:49.888Z,4.30
2018-11-02T15:54:18.481Z,6.00
2018-11-02T15:56:47.141Z,5.97
2018-11-02T15:59:15.730Z,7.30
2018-11-02T16:01:44.266Z,4.83
2018-11-02T16:04:13.449Z,3.67
2018-11-02T16:06:42.066Z,4.63
2018-11-02T16:09:13.533Z,5.33
2018-11-02T16:11:42.406Z,3.70
2018-11-02T16:14:11.273Z,2.90
2018-11-02T16:16:39.979Z,4.40
2018-11-02T16:19:08.614Z,5.30
2018-11-02T16:21:38.089Z,4.87
2018-11-02T16:24:07.515Z,4.83
2018-11-02T16:26:36.105Z,4.40
2018-11-02T16:29:04.967Z,3.13
2018-11-02T16:31:33.496Z,3.77
2018-11-02T16:34:02.499Z,7.83
2018-11-02T16:36:31.119Z,12.50
2018-11-02T16:38:59.780Z,11.57
2018-11-02T16:41:28.377Z,13.83
2018-11-02T16:43:56.962Z,12.40
2018-11-02T16:46:25.690Z,8.10
2018-11-02T16:48:54.317Z,7.60
2018-11-02T16:51:23.078Z,6.50
2018-11-02T16:53:51.786Z,4.23
2018-11-02T16:56:20.455Z,4.20
2018-11-02T16:58:49.010Z,4.60
2018-11-02T17:01:17.681Z,3.67
2018-11-02T17:03:46.218Z,3.53
2018-11-02T17:06:15.028Z,3.90
2018-11-02T17:08:43.918Z,5.57
2018-11-02T17:11:12.538Z,4.90
2018-11-02T17:13:41.245Z,6.70
2018-11-02T17:16:09.898Z,7.00
2018-11-02T17:18:38.539Z,5.57
2018-11-02T17:21:07.140Z,5.67
2018-11-02T17:23:42.458Z,4.60
2018-11-02T17:26:11.157Z,5.77
2018-11-02T17:28:39.749Z,9.63
2018-11-02T17:31:08.395Z,8.67
2018-11-02T17:33:37.065Z,4.43
2018-11-02T17:36:05.869Z,10.03
2018-11-02T17:38:34.541Z,6.80
2018-11-02T17:41:03.187Z,10.37
2018-11-02T17:43:31.867Z,7.87
2018-11-02T17:46:00.456Z,12.37
2018-11-02T17:48:29.418Z,10.23
2018-11-02T17:50:58.059Z,5.50
2018-11-02T17:53:26.635Z,7.80
2018-11-02T17:55:55.188Z,7.33
2018-11-02T17:58:24.074Z,5.70
2018-11-02T18:00:52.657Z,6.43
2018-11-02T18:03:21.344Z,12.20
2018-11-02T18:05:49.906Z,9.67
2018-11-02T18:08:18.671Z,19.77
2018-11-02T18:10:47.194Z,16.33
2018-11-02T18:13:15.925Z,7.57
2018-11-02T18:15:44.633Z,7.00
2018-11-02T18:18:13.332Z,7.90
2018-11-02T18:20:42.113Z,9.00
2018-11-02T18:23:10.690Z,13.33
2018-11-02T18:25:39.497Z,15.70
2018-11-02T18:28:08.076Z,19.03
2018-11-02T18:30:36.726Z,50.57
2018-11-02T18:33:05.632Z,37.23
2018-11-02T18:35:34.292Z,16.40
2018-11-02T18:38:02.886Z,13.10
2018-11-02T18:40:31.499Z,14.47
2018-11-02T18:43:00.096Z,12.90
2018-11-02T18:45:28.653Z,13.03
2018-11-02T18:47:57.278Z,13.87
2018-11-02T18:50:26.029Z,25.27
2018-11-02T18:52:54.792Z,15.70
2018-11-02T18:55:23.335Z,11.30
2018-11-02T18:57:52.093Z,11.87
2018-11-02T19:00:20.844Z,16.23
2018-11-02T19:02:49.485Z,10.10
2018-11-02T19:05:19.015Z,11.53
2018-11-02T19:07:47.677Z,8.00
2018-11-02T19:10:16.264Z,6.17
2018-11-02T19:12:45.218Z,7.57
2018-11-02T19:15:16.038Z,5.60
2018-11-02T19:17:44.770Z,5.30
2018-11-02T19:20:13.808Z,6.33
2018-11-02T19:22:42.378Z,7.30
2018-11-02T19:25:12.582Z,10.80
2018-11-02T19:27:41.391Z,13.57
2018-11-02T19:30:11.362Z,9.90
2018-11-02T19:32:40.146Z,6.37
2018-11-02T19:35:09.409Z,6.60
2018-11-02T19:37:38.023Z,6.83
2018-11-02T19:40:08.905Z,11.53
2018-11-02T19:42:37.502Z,11.40
2018-11-02T19:45:06.633Z,9.50
2018-11-02T19:47:40.728Z,7.50
2018-11-02T19:50:11.344Z,10.30
2018-11-02T19:52:39.992Z,8.73
2018-11-02T19:55:09.675Z,10.10
2018-11-02T19:57:38.310Z,8.70
2018-11-02T20:00:09.087Z,9.60
2018-11-02T20:02:38.121Z,9.60
2018-11-02T20:05:08.397Z,7.07
2018-11-02T20:07:37.002Z,7.47
2018-11-02T20:10:06.914Z,4.10
2018-11-02T20:12:35.675Z,4.77
2018-11-02T20:15:05.015Z,5.13
2018-11-02T20:17:33.724Z,4.67
2018-11-02T20:20:02.398Z,4.80
2018-11-02T20:22:31.029Z,4.30
2018-11-02T20:24:59.600Z,4.93
2018-11-02T20:27:28.265Z,7.07
2018-11-02T20:29:56.941Z,7.33
2018-11-02T20:32:25.655Z,4.47
2018-11-02T20:34:54.268Z,8.50
2018-11-02T20:37:23.733Z,5.90
2018-11-02T20:39:52.479Z,4.30
2018-11-02T20:42:21.172Z,3.73
2018-11-02T20:44:49.779Z,3.50
2018-11-02T20:47:18.527Z,4.33
2018-11-02T20:49:47.223Z,4.03
2018-11-02T20:52:15.970Z,7.17
2018-11-02T20:54:44.695Z,3.70
2018-11-02T20:57:13.299Z,5.10
2018-11-02T20:59:42.017Z,5.67
2018-11-02T21:02:10.711Z,6.22
2018-11-02T21:04:39.407Z,5.43
2018-11-02T21:07:08.106Z,3.70
2018-11-02T21:09:36.776Z,7.12
2018-11-02T21:12:05.558Z,9.80
2018-11-02T21:14:34.365Z,16.47
2018-11-02T21:17:02.856Z,7.90
2018-11-02T21:19:31.463Z,10.30
2018-11-02T21:22:00.243Z,7.05
2018-11-02T21:24:28.789Z,5.00
2018-11-02T21:26:57.503Z,5.63
2018-11-02T21:29:26.049Z,6.37
2018-11-02T21:31:54.699Z,5.10
2018-11-02T21:34:23.355Z,4.95
2018-11-02T21:36:52.021Z,11.97
2018-11-02T21:39:20.646Z,4.53
2018-11-02T21:41:49.238Z,4.58
2018-11-02T21:44:17.939Z,2.70
2018-11-02T21:46:46.632Z,3.83
2018-11-02T21:49:15.669Z,4.17
2018-11-02T21:51:44.271Z,6.42
2018-11-02T21:54:12.866Z,3.50
2018-11-02T21:56:41.477Z,8.23
2018-11-02T21:59:10.190Z,7.63
2018-11-02T22:01:38.787Z,5.30
2018-11-02T22:04:07.556Z,5.67
2018-11-02T22:06:36.240Z,5.67
2018-11-02T22:09:07.106Z,3.33
2018-11-02T22:11:35.774Z,5.15
2018-11-02T22:14:04.388Z,3.08
2018-11-02T22:16:33.081Z,4.00
2018-11-02T22:19:01.720Z,4.53
2018-11-02T22:21:30.461Z,8.80
2018-11-02T22:23:59.157Z,6.20
2018-11-02T22:26:27.953Z,7.63
2018-11-02T22:28:56.520Z,7.60
2018-11-02T22:31:25.360Z,5.10
2018-11-02T22:33:54.162Z,4.92
2018-11-02T22:36:22.721Z,4.85
2018-11-02T22:38:51.321Z,5.35
2018-11-02T22:41:20.296Z,6.12
2018-11-02T22:43:48.965Z,4.67
2018-11-02T22:46:17.542Z,5.37
2018-11-02T22:48:46.204Z,4.17
2018-11-02T22:51:14.802Z,5.30
2018-11-02T22:53:43.371Z,7.72
2018-11-02T22:56:12.054Z,10.45
2018-11-02T22:58:40.713Z,4.40
2018-11-02T23:01:14.701Z,5.47
2018-11-02T23:03:43.341Z,6.45
2018-11-02T23:06:11.929Z,5.65
2018-11-02T23:08:40.557Z,7.23
2018-11-02T23:11:09.153Z,6.45
2018-11-02T23:13:37.809Z,7.47
2018-11-02T23:16:06.499Z,5.90
2018-11-02T23:18:35.233Z,6.47
2018-11-02T23:21:03.765Z,7.25
2018-11-02T23:23:32.377Z,6.83
2018-11-02T23:26:01.057Z,6.53
2018-11-02T23:28:29.686Z,6.10
2018-11-02T23:30:58.365Z,6.50
2018-11-02T23:33:26.926Z,5.60
2018-11-02T23:35:55.477Z,5.00
2018-11-02T23:38:24.082Z,5.47
2018-11-02T23:40:52.683Z,7.90
2018-11-02T23:43:21.366Z,11.93
2018-11-02T23:45:49.918Z,8.20
2018-11-02T23:48:19.362Z,9.43
2018-11-02T23:50:49.445Z,7.25
2018-11-02T23:53:18.005Z,12.43
2018-11-02T23:55:47.333Z,4.80
2018-11-02T23:58:16.401Z,7.90
